Time;durP1;ratioP1;P1;durP2;ratioP2;P2;SDS_P1;SDS_P2;PMS_P1;PMS_P2;Temp;Humidity;BMP_temperature;BMP_pressure;BME280_temperature;BME280_humidity;BME280_pressure;Samples;Min_cycle;Max_cycle;Signal;HPM_P1;HPM_P2
2022/10/01 00:01:05;;;;;;;13.27;7.43;;;;;;;8.85;100.00;99779.28;4996068;28;20133;-76
2022/10/01 00:03:31;;;;;;;10.55;7.07;;;;;;;8.85;100.00;99777.44;5021237;28;20033;-76
2022/10/01 00:05:59;;;;;;;13.30;6.73;;;;;;;8.97;100.00;99774.38;4999231;28;20103;-77
2022/10/01 00:08:26;;;;;;;8.77;6.22;;;;;;;8.93;100.00;99727.81;5018719;28;20345;-77
2022/10/01 00:10:52;;;;;;;9.45;7.40;;;;;;;8.95;100.00;99721.28;5000300;28;20041;-77
2022/10/01 00:13:17;;;;;;;10.15;6.57;;;;;;;8.93;100.00;99690.53;5001011;28;20033;-76
2022/10/01 00:15:43;;;;;;;11.20;6.75;;;;;;;8.94;100.00;99695.66;5019759;28;20517;-76
2022/10/01 00:18:09;;;;;;;10.23;6.43;;;;;;;9.00;100.00;99684.31;5023749;28;20048;-76
2022/10/01 00:20:39;;;;;;;7.47;6.10;;;;;;;8.95;100.00;99669.91;5026341;28;20043;-76
2022/10/01 00:23:04;;;;;;;8.60;5.97;;;;;;;8.87;100.00;99679.59;4998893;28;20533;-77
2022/10/01 00:25:30;;;;;;;7.22;5.90;;;;;;;8.80;100.00;99683.97;5018198;28;20096;-77
2022/10/01 00:27:55;;;;;;;10.23;5.90;;;;;;;8.79;100.00;99703.59;4999234;28;20136;-77
2022/10/01 00:30:20;;;;;;;9.53;6.20;;;;;;;8.79;100.00;99708.91;5017206;28;20060;-77
2022/10/01 00:32:46;;;;;;;7.23;6.00;;;;;;;8.85;100.00;99729.53;5000510;28;20279;-77
2022/10/01 00:35:13;;;;;;;9.23;6.73;;;;;;;8.81;100.00;99727.38;5016211;28;20463;-77
2022/10/01 00:37:41;;;;;;;10.82;5.57;;;;;;;8.75;100.00;99717.44;5018932;28;20034;-76
2022/10/01 00:40:07;;;;;;;8.93;6.63;;;;;;;8.80;100.00;99715.06;5015349;28;20596;-76
2022/10/01 00:42:32;;;;;;;9.32;5.47;;;;;;;8.82;100.00;99703.22;5019850;28;20029;-76
2022/10/01 00:45:00;;;;;;;5.97;5.00;;;;;;;8.77;100.00;99694.97;5016004;28;20034;-77
2022/10/01 00:47:30;;;;;;;8.35;5.20;;;;;;;8.68;100.00;99696.00;5017950;28;20042;-76
2022/10/01 00:50:40;;;;;;;6.70;5.63;;;;;;;8.69;100.00;99708.31;4998769;28;20044;-76
2022/10/01 00:53:12;;;;;;;9.55;5.47;;;;;;;8.70;100.00;99712.63;4961548;28;20097;-76
2022/10/01 00:55:54;;;;;;;13.25;5.55;;;;;;;8.62;100.00;99696.72;4980515;28;20102;-76
2022/10/01 00:58:20;;;;;;;7.53;5.43;;;;;;;8.65;100.00;99704.34;4976027;28;20039;-77
2022/10/01 01:00:47;;;;;;;9.10;5.53;;;;;;;8.66;100.00;99698.00;4963164;28;20038;-77
2022/10/01 01:03:14;;;;;;;9.98;5.60;;;;;;;8.55;100.00;99696.59;4969119;28;20057;-76
2022/10/01 01:05:39;;;;;;;9.27;5.28;;;;;;;8.48;100.00;99705.47;4962524;28;20022;-76
2022/10/01 01:08:07;;;;;;;5.57;4.47;;;;;;;8.48;100.00;99695.66;4960831;28;20089;-77
2022/10/01 01:10:48;;;;;;;8.95;4.95;;;;;;;8.53;100.00;99697.78;4968614;28;20137;-76
2022/10/01 01:13:36;;;;;;;6.10;4.78;;;;;;;8.48;100.00;99694.81;4977522;28;20043;-77
2022/10/01 01:16:11;;;;;;;8.90;5.43;;;;;;;8.52;100.00;99696.97;4976949;28;20053;-76
2022/10/01 01:18:44;;;;;;;7.18;4.50;;;;;;;8.46;100.00;99692.31;4967798;28;20125;-76
2022/10/01 01:21:31;;;;;;;7.40;5.28;;;;;;;8.49;100.00;99688.47;4975876;28;20037;-77
2022/10/01 01:24:08;;;;;;;6.97;4.25;;;;;;;8.49;100.00;99696.47;4964076;28;20141;-76
2022/10/01 01:27:08;;;;;;;5.78;4.90;;;;;;;8.47;100.00;99690.47;4961762;28;20046;-76
2022/10/01 01:29:48;;;;;;;9.27;5.15;;;;;;;8.47;100.00;99699.28;4998335;28;20048;-77
2022/10/01 01:32:23;;;;;;;7.60;4.55;;;;;;;8.57;100.00;99685.75;4999388;28;20033;-76
2022/10/01 01:34:52;;;;;;;5.95;4.55;;;;;;;8.48;100.00;99668.22;5016410;28;20488;-76
2022/10/01 01:37:23;;;;;;;8.85;4.95;;;;;;;8.44;100.00;99673.88;5015620;28;20026;-77
2022/10/01 01:39:52;;;;;;;7.97;4.72;;;;;;;8.47;100.00;99678.00;5016447;28;20087;-76
2022/10/01 01:42:25;;;;;;;7.13;4.80;;;;;;;8.45;100.00;99680.88;5015216;28;20061;-77
2022/10/01 01:44:53;;;;;;;5.13;4.63;;;;;;;8.43;100.00;99666.91;5014862;28;20021;-76
2022/10/01 01:47:22;;;;;;;5.90;4.57;;;;;;;8.43;100.00;99656.25;5016240;28;20120;-77
2022/10/01 01:49:49;;;;;;;7.82;4.30;;;;;;;8.45;100.00;99680.00;5016522;28;20044;-76
2022/10/01 01:52:16;;;;;;;5.72;4.65;;;;;;;8.47;100.00;99661.22;5017362;28;20034;-76
2022/10/01 01:54:46;;;;;;;;;;;;;;;8.53;100.00;99665.84;4999533;28;20498;-76
2022/10/01 01:57:12;;;;;;;7.50;4.65;;;;;;;8.52;100.00;99658.84;5015629;28;19924;-76
2022/10/01 01:59:39;;;;;;;8.68;4.30;;;;;;;8.45;100.00;99675.53;5000613;28;20037;-76
2022/10/01 02:02:07;;;;;;;9.57;4.75;;;;;;;8.45;100.00;99674.69;5014828;28;20022;-76
2022/10/01 02:05:17;;;;;;;6.78;4.85;;;;;;;8.47;100.00;99687.81;5017914;28;20037;-76
2022/10/01 02:08:11;;;;;;;6.15;4.10;;;;;;;8.45;100.00;99694.16;4978732;28;20038;-76
2022/10/01 02:10:54;;;;;;;6.32;4.63;;;;;;;8.48;100.00;99685.00;5000161;28;20077;-75
2022/10/01 02:13:32;;;;;;;10.30;5.90;;;;;;;8.52;100.00;99688.13;5015232;28;20561;-76
2022/10/01 02:16:07;;;;;;;7.47;4.60;;;;;;;8.50;100.00;99680.34;5000895;28;20038;-76
2022/10/01 02:18:42;;;;;;;10.65;4.72;;;;;;;8.54;100.00;99660.34;5013321;28;20067;-76
2022/10/01 02:21:19;;;;;;;6.57;4.85;;;;;;;8.52;100.00;99648.22;5014582;28;20514;-75
2022/10/01 02:23:55;;;;;;;19.33;6.10;;;;;;;8.49;100.00;99654.72;5014993;28;20116;-75
2022/10/01 02:26:23;;;;;;;6.90;4.47;;;;;;;8.56;100.00;99668.16;4997856;28;20034;-76
2022/10/01 02:28:52;;;;;;;6.85;5.18;;;;;;;8.55;100.00;99669.19;4997644;28;20044;-75
2022/10/01 02:31:21;;;;;;;9.18;4.63;;;;;;;8.51;100.00;99660.69;4998206;28;20096;-75
2022/10/01 02:33:51;;;;;;;7.78;4.57;;;;;;;8.54;100.00;99664.84;5014385;28;20025;-76
2022/10/01 02:36:18;;;;;;;9.10;4.32;;;;;;;8.56;100.00;99655.69;5014515;28;20037;-74
2022/10/01 02:38:46;;;;;;;10.13;4.45;;;;;;;8.58;100.00;99648.34;5016020;28;20022;-75
2022/10/01 02:41:18;;;;;;;5.97;4.50;;;;;;;8.59;100.00;99638.53;5013682;28;20297;-75
2022/10/01 02:43:56;;;;;;;10.75;4.47;;;;;;;8.60;100.00;99634.88;4999409;28;20041;-75
2022/10/01 02:46:29;;;;;;;9.02;4.45;;;;;;;8.66;100.00;99623.50;5014539;28;20116;-75
2022/10/01 02:48:56;;;;;;;5.70;4.90;;;;;;;8.71;100.00;99609.69;4996635;28;20046;-75
2022/10/01 02:51:52;;;;;;;9.00;4.72;;;;;;;8.77;100.00;99599.16;5015307;28;20625;-77
2022/10/01 02:54:29;;;;;;;;;;;;;;;8.79;100.00;99581.16;5013817;28;20064;-75
2022/10/01 02:59:40;;;;;;;10.82;4.57;;;;;;;8.75;100.00;99566.56;5013267;28;20154;-76
2022/10/01 03:02:06;;;;;;;7.53;4.87;;;;;;;8.76;100.00;99564.75;5014229;28;20022;-76
2022/10/01 03:04:31;;;;;;;7.63;4.50;;;;;;;8.77;100.00;99556.56;5015898;28;20022;-76
2022/10/01 03:07:02;;;;;;;6.20;4.77;;;;;;;8.82;100.00;99551.53;5025344;28;20573;-76
2022/10/01 03:09:28;;;;;;;8.55;4.15;;;;;;;8.87;100.00;99530.53;5019579;28;20426;-76
2022/10/01 03:11:54;;;;;;;5.07;4.55;;;;;;;8.92;100.00;99518.50;5022383;28;20021;-76
2022/10/01 03:14:19;;;;;;;8.50;4.53;;;;;;;8.94;100.00;99504.00;5015377;28;20509;-76
2022/10/01 03:16:44;;;;;;;7.53;4.47;;;;;;;8.90;100.00;99501.88;4998035;28;20041;-76
2022/10/01 03:19:10;;;;;;;8.23;4.50;;;;;;;8.90;100.00;99496.56;5013662;28;20577;-78
2022/10/01 03:21:35;;;;;;;9.07;4.60;;;;;;;8.97;100.00;99489.53;5016650;28;20427;-75
2022/10/01 03:24:01;;;;;;;7.27;4.20;;;;;;;8.98;100.00;99475.19;5013781;28;20038;-76
2022/10/01 03:26:26;;;;;;;5.47;4.20;;;;;;;8.93;100.00;99464.28;5015724;28;20034;-76
2022/10/01 03:28:51;;;;;;;6.60;4.13;;;;;;;9.01;100.00;99474.81;5017548;28;20116;-76
2022/10/01 03:31:17;;;;;;;5.90;4.03;;;;;;;8.99;100.00;99458.19;5015358;28;20030;-75
2022/10/01 03:33:42;;;;;;;6.10;4.53;;;;;;;8.97;100.00;99446.94;5015934;28;20048;-75
2022/10/01 03:36:07;;;;;;;10.03;4.67;;;;;;;8.95;100.00;99452.44;5013750;28;20064;-76
2022/10/01 03:38:33;;;;;;;10.53;4.07;;;;;;;9.00;100.00;99454.56;5023438;28;20036;-77
2022/10/01 03:40:58;;;;;;;6.70;3.87;;;;;;;9.01;100.00;99461.50;5016825;28;20030;-76
2022/10/01 03:43:25;;;;;;;6.07;3.93;;;;;;;9.02;100.00;99466.66;5020066;28;20120;-77
2022/10/01 03:45:51;;;;;;;9.63;4.18;;;;;;;9.02;100.00;99457.84;5008272;28;20017;-76
2022/10/01 03:48:17;;;;;;;6.07;3.80;;;;;;;8.98;100.00;99467.22;5017794;28;20037;-76
2022/10/01 03:50:42;;;;;;;7.72;3.90;;;;;;;8.96;100.00;99463.91;5019198;28;20521;-75
2022/10/01 03:53:08;;;;;;;5.80;3.87;;;;;;;9.00;100.00;99481.16;5016692;28;20165;-76
2022/10/01 03:55:33;;;;;;;5.73;3.43;;;;;;;9.04;100.00;99477.13;5002686;28;20345;-76
2022/10/01 03:57:58;;;;;;;8.07;3.90;;;;;;;9.03;100.00;99481.63;5016252;28;20040;-76
2022/10/01 04:00:24;;;;;;;7.13;3.93;;;;;;;9.02;100.00;99485.28;5018243;28;20426;-76
2022/10/01 04:02:50;;;;;;;5.13;3.70;;;;;;;8.96;100.00;99466.56;5001315;28;20030;-77
2022/10/01 04:05:15;;;;;;;5.97;4.20;;;;;;;9.07;100.00;99476.75;5017812;28;20018;-76
2022/10/01 04:07:41;;;;;;;6.13;4.43;;;;;;;9.12;100.00;99478.88;5002527;28;20524;-77
2022/10/01 04:10:07;;;;;;;9.13;4.00;;;;;;;9.13;100.00;99475.19;5023225;28;20035;-77
2022/10/01 04:12:32;;;;;;;6.32;3.50;;;;;;;9.06;100.00;99464.44;5029250;28;20033;-77
2022/10/01 04:14:58;;;;;;;5.80;3.70;;;;;;;9.07;100.00;99463.44;5003170;28;20099;-76
2022/10/01 04:17:23;;;;;;;8.50;4.10;;;;;;;9.07;100.00;99466.13;5025979;28;20288;-76
2022/10/01 04:19:48;;;;;;;6.70;3.70;;;;;;;9.07;100.00;99476.75;5026407;28;20036;-76
2022/10/01 04:22:14;;;;;;;6.23;3.57;;;;;;;9.15;100.00;99467.84;5031578;28;20036;-76
2022/10/01 04:24:39;;;;;;;6.23;4.33;;;;;;;9.14;100.00;99458.22;5009253;28;20028;-76
2022/10/01 04:27:04;;;;;;;4.60;3.47;;;;;;;9.18;100.00;99441.69;5013719;28;20116;-77
2022/10/01 04:29:30;;;;;;;8.43;3.63;;;;;;;9.19;100.00;99430.00;5009896;28;20025;-76
2022/10/01 04:31:57;;;;;;;5.33;3.87;;;;;;;9.11;100.00;99419.47;5018577;28;20030;-76
2022/10/01 04:34:51;;;;;;;10.27;3.85;;;;;;;9.21;100.00;99421.84;5002056;28;20485;-77
2022/10/01 04:37:07;;;;;;;7.18;3.60;;;;;;;9.22;100.00;99426.97;5016442;28;20029;-76
2022/10/01 04:39:33;;;;;;;4.97;3.70;;;;;;;9.22;100.00;99426.97;5026027;28;20404;-76
2022/10/01 04:41:58;;;;;;;5.77;3.50;;;;;;;9.23;100.00;99412.66;5015940;28;20037;-76
2022/10/01 04:44:23;;;;;;;10.17;4.00;;;;;;;9.18;100.00;99428.38;5018337;28;20116;-76
2022/10/01 04:46:49;;;;;;;6.97;4.00;;;;;;;9.15;100.00;99444.69;4999715;28;20084;-77
2022/10/01 04:49:14;;;;;;;4.57;3.77;;;;;;;9.17;100.00;99448.00;5016821;28;20069;-77
2022/10/01 04:51:39;;;;;;;6.83;3.80;;;;;;;9.11;100.00;99467.41;5018919;28;20077;-77
2022/10/01 04:54:05;;;;;;;6.77;3.77;;;;;;;9.11;100.00;99477.22;5015129;28;20069;-77
2022/10/01 04:56:30;;;;;;;12.77;3.87;;;;;;;9.14;100.00;99509.63;5002603;28;20470;-77
2022/10/01 04:58:56;;;;;;;4.50;3.67;;;;;;;9.03;100.00;99512.75;5015861;28;20557;-77
2022/10/01 05:01:21;;;;;;;6.27;4.57;;;;;;;9.02;100.00;99505.78;5017680;28;20111;-78
2022/10/01 05:03:46;;;;;;;7.10;3.97;;;;;;;9.09;100.00;99528.00;4986402;28;20029;-77
2022/10/01 05:06:12;;;;;;;7.23;4.07;;;;;;;9.06;100.00;99554.97;5002049;28;20021;-77
2022/10/01 05:08:37;;;;;;;7.17;4.10;;;;;;;9.01;100.00;99565.34;5018797;28;20090;-77
2022/10/01 05:11:03;;;;;;;7.25;4.65;;;;;;;9.05;100.00;99562.13;5017164;28;20037;-77
2022/10/01 05:13:30;;;;;;;9.63;4.00;;;;;;;8.96;100.00;99567.72;5002541;28;20116;-77
2022/10/01 05:15:56;;;;;;;7.97;4.68;;;;;;;8.95;100.00;99595.38;5017799;28;20124;-78
2022/10/01 05:18:22;;;;;;;5.90;4.07;;;;;;;8.82;100.00;99596.78;5019056;28;20145;-78
2022/10/01 05:20:47;;;;;;;7.43;4.40;;;;;;;8.80;100.00;99620.09;5018999;28;20510;-79
2022/10/01 05:23:12;;;;;;;4.57;3.90;;;;;;;8.75;100.00;99614.47;5018948;28;20364;-78
2022/10/01 05:25:38;;;;;;;9.10;4.63;;;;;;;8.69;100.00;99620.50;5003220;28;20040;-79
2022/10/01 05:28:04;;;;;;;6.80;4.70;;;;;;;8.68;100.00;99621.50;5016171;28;20085;-78
2022/10/01 05:30:30;;;;;;;12.13;6.22;;;;;;;8.65;100.00;99619.22;5023493;28;20038;-78
2022/10/01 05:33:03;;;;;;;7.68;4.65;;;;;;;8.62;100.00;99608.94;5015076;28;20444;-78
2022/10/01 05:35:29;;;;;;;7.05;4.97;;;;;;;8.53;100.00;99607.34;5018031;28;20076;-78
2022/10/01 05:38:00;;;;;;;9.93;5.20;;;;;;;8.59;100.00;99612.78;4999349;28;20056;-78
2022/10/01 05:40:27;;;;;;;8.25;5.10;;;;;;;8.49;100.00;99608.69;5018098;28;20510;-78
2022/10/01 05:42:53;;;;;;;12.52;4.70;;;;;;;8.49;100.00;99619.31;5017759;28;20029;-78
2022/10/01 05:45:21;;;;;;;8.82;5.15;;;;;;;8.41;100.00;99625.53;5018365;28;20414;-78
2022/10/01 05:47:48;;;;;;;8.65;5.47;;;;;;;8.43;100.00;99629.66;5001733;28;20037;-77
2022/10/01 05:50:14;;;;;;;7.50;5.30;;;;;;;8.38;100.00;99628.50;5017471;28;20022;-77
2022/10/01 05:52:46;;;;;;;;;;;;;;;8.44;100.00;99633.97;5007046;28;20033;-77
2022/10/01 05:55:12;;;;;;;8.95;4.85;;;;;;;8.41;100.00;99626.34;5017377;28;19953;-77
2022/10/01 05:57:37;;;;;;;9.07;5.60;;;;;;;8.42;100.00;99625.34;5019693;28;20029;-77
2022/10/01 06:00:03;;;;;;;7.63;5.93;;;;;;;8.33;100.00;99609.56;5013917;28;20391;-78
2022/10/01 06:02:37;;;;;;;9.02;4.60;;;;;;;8.45;100.00;99616.16;5020552;28;20045;-77
2022/10/01 06:05:02;;;;;;;8.73;5.87;;;;;;;8.29;100.00;99606.47;4999991;28;20034;-78
2022/10/01 06:07:31;;;;;;;11.13;5.50;;;;;;;8.32;100.00;99599.97;5010520;28;20033;-77
2022/10/01 06:09:56;;;;;;;7.25;4.63;;;;;;;8.38;100.00;99602.75;5016430;28;20038;-76
2022/10/01 06:12:22;;;;;;;6.17;4.97;;;;;;;8.40;100.00;99606.06;5002726;28;20092;-78
2022/10/01 06:14:47;;;;;;;8.10;6.20;;;;;;;8.39;100.00;99595.59;5017113;28;20025;-79
2022/10/01 06:17:13;;;;;;;8.10;4.93;;;;;;;8.40;100.00;99591.94;5016601;28;20125;-79
2022/10/01 06:19:38;;;;;;;7.10;5.07;;;;;;;8.39;100.00;99593.75;5004737;28;20033;-79
2022/10/01 06:22:03;;;;;;;7.93;4.53;;;;;;;8.26;100.00;99580.19;5014684;28;20026;-80
2022/10/01 06:24:30;;;;;;;11.00;5.53;;;;;;;8.26;100.00;99590.84;5001418;28;20451;-79
2022/10/01 06:26:56;;;;;;;8.90;5.40;;;;;;;8.25;100.00;99587.34;4998190;28;20128;-81
2022/10/01 06:29:22;;;;;;;6.60;5.30;;;;;;;8.33;100.00;99581.16;5008785;28;20165;-79
2022/10/01 06:31:47;;;;;;;8.98;5.60;;;;;;;8.35;100.00;99579.13;5004671;28;20371;-81
2022/10/01 06:34:12;;;;;;;8.90;5.60;;;;;;;8.33;100.00;99564.38;5019735;28;20447;-79
2022/10/01 06:36:38;;;;;;;7.60;5.60;;;;;;;8.26;100.00;99553.59;5018057;28;20029;-81
2022/10/01 06:39:03;;;;;;;9.07;5.33;;;;;;;8.33;100.00;99565.19;5015630;28;20475;-80
2022/10/01 06:41:28;;;;;;;8.97;5.10;;;;;;;8.27;100.00;99565.09;4987016;28;20040;-81
2022/10/01 06:43:54;;;;;;;13.03;6.93;;;;;;;8.21;100.00;99551.47;5000299;28;20203;-81
2022/10/01 06:46:19;;;;;;;8.77;5.50;;;;;;;8.19;100.00;99547.34;5020985;28;20242;-80
2022/10/01 06:48:44;;;;;;;11.43;6.73;;;;;;;8.26;100.00;99545.63;4985223;28;20072;-81
2022/10/01 06:51:10;;;;;;;8.57;6.07;;;;;;;8.28;100.00;99553.44;5018740;28;20029;-79
2022/10/01 06:53:35;;;;;;;9.17;5.67;;;;;;;8.31;100.00;99547.75;5020437;28;20025;-78
2022/10/01 06:56:06;;;;;;;9.83;6.47;;;;;;;8.28;100.00;99540.97;5017764;28;20038;-78
2022/10/01 06:58:32;;;;;;;8.55;5.55;;;;;;;8.25;100.00;99536.00;5008867;28;20071;-77
2022/10/01 07:01:00;;;;;;;9.23;5.85;;;;;;;8.29;100.00;99547.94;4997477;28;20049;-77
2022/10/01 07:03:26;;;;;;;10.30;6.30;;;;;;;8.26;100.00;99535.00;5016009;28;20486;-77
2022/10/01 07:05:51;;;;;;;13.75;6.78;;;;;;;8.24;100.00;99534.34;4997539;28;20073;-77
2022/10/01 07:08:17;;;;;;;8.13;6.40;;;;;;;8.29;100.00;99533.81;5014224;28;20072;-77
2022/10/01 07:10:45;;;;;;;14.52;7.30;;;;;;;8.28;100.00;99521.53;5016079;28;20035;-77
2022/10/01 07:13:19;;;;;;;8.98;6.15;;;;;;;8.28;100.00;99514.38;5014608;28;20112;-77
2022/10/01 07:15:45;;;;;;;8.73;6.55;;;;;;;8.28;100.00;99497.59;5001141;28;20036;-77
2022/10/01 07:18:11;;;;;;;11.95;6.20;;;;;;;8.31;100.00;99507.88;5015749;28;20022;-77
2022/10/01 07:20:41;;;;;;;9.63;6.20;;;;;;;8.24;100.00;99497.09;5015878;28;20417;-76
2022/10/01 07:23:14;;;;;;;8.20;6.28;;;;;;;8.31;100.00;99523.81;5021524;28;20033;-78
2022/10/01 07:25:40;;;;;;;8.60;6.05;;;;;;;8.30;100.00;99506.22;5019228;28;20061;-77
2022/10/01 07:28:07;;;;;;;;;;;;;;;8.32;100.00;99499.72;5027077;28;20038;-77
2022/10/01 07:30:33;;;;;;;10.38;7.18;;;;;;;8.25;100.00;99494.28;5008645;28;20299;-75
2022/10/01 07:32:58;;;;;;;9.93;7.25;;;;;;;8.27;100.00;99486.13;5007691;28;20072;-77
2022/10/01 07:35:24;;;;;;;11.97;7.90;;;;;;;8.29;100.00;99491.25;5007797;28;20045;-76
2022/10/01 07:37:50;;;;;;;10.87;8.00;;;;;;;8.17;100.00;99482.88;5008011;28;20033;-76
2022/10/01 07:40:17;;;;;;;10.07;6.80;;;;;;;8.24;100.00;99481.16;4991024;28;20287;-76
2022/10/01 07:42:43;;;;;;;12.02;7.32;;;;;;;8.22;100.00;99469.91;5024210;28;20099;-76
2022/10/01 07:45:08;;;;;;;;;;;;;;;8.28;100.00;99474.47;5008237;28;20025;-75
2022/10/01 07:47:34;;;;;;;;;;;;;;;8.22;100.00;99470.72;5025596;28;19935;-75
2022/10/01 07:49:59;;;;;;;11.83;7.17;;;;;;;8.23;100.00;99469.69;5007822;28;20282;-75
2022/10/01 07:52:25;;;;;;;11.83;7.17;;;;;;;8.23;100.00;99469.69;5027169;28;20517;-78
2022/10/01 07:54:50;;;;;;;13.20;8.27;;;;;;;8.23;100.00;99467.03;5008395;28;20053;-77
2022/10/01 07:57:15;;;;;;;16.43;7.50;;;;;;;8.25;100.00;99440.28;5024144;28;20025;-78
2022/10/01 07:59:41;;;;;;;11.77;7.80;;;;;;;8.27;100.00;99442.78;5024567;28;20029;-78
2022/10/01 08:02:14;;;;;;;12.32;7.75;;;;;;;8.31;100.00;99444.03;5024857;28;20026;-76
2022/10/01 08:07:24;;;;;;;14.43;7.90;;;;;;;8.32;100.00;99425.25;5026896;28;20041;-78
2022/10/01 08:09:50;;;;;;;15.93;7.97;;;;;;;8.22;100.00;99419.38;5011283;28;20025;-78
2022/10/01 08:12:16;;;;;;;12.73;9.17;;;;;;;8.31;100.00;99430.75;5010810;28;20394;-78
2022/10/01 08:14:42;;;;;;;15.02;8.48;;;;;;;8.25;100.00;99421.69;5010670;28;20041;-77
2022/10/01 08:17:07;;;;;;;9.95;7.38;;;;;;;8.32;100.00;99425.25;5007855;28;20044;-77
2022/10/01 08:19:33;;;;;;;13.60;7.83;;;;;;;8.33;100.00;99410.13;5007482;28;20486;-76
2022/10/01 08:21:58;;;;;;;10.77;8.37;;;;;;;8.40;100.00;99419.06;5025236;28;20677;-75
2022/10/01 08:24:23;;;;;;;11.63;7.13;;;;;;;8.34;100.00;99407.31;5027101;28;20044;-75
2022/10/01 08:26:55;;;;;;;11.30;7.37;;;;;;;8.39;100.00;99430.69;4994098;28;20037;-75
2022/10/01 08:29:21;;;;;;;9.80;6.35;;;;;;;8.39;100.00;99404.91;5010861;28;20060;-75
2022/10/01 08:31:47;;;;;;;12.60;8.15;;;;;;;8.39;100.00;99410.25;5028003;28;20060;-75
2022/10/01 08:34:12;;;;;;;10.45;7.05;;;;;;;8.32;100.00;99404.00;5028571;28;20041;-77
2022/10/01 08:36:38;;;;;;;13.02;7.22;;;;;;;8.38;100.00;99410.41;5010988;28;20398;-75
2022/10/01 08:39:03;;;;;;;9.17;6.70;;;;;;;8.39;100.00;99404.91;5029798;28;20136;-76
2022/10/01 08:41:51;;;;;;;8.53;6.40;;;;;;;8.47;100.00;99411.19;5024411;28;20471;-75
2022/10/01 08:44:26;;;;;;;11.23;6.25;;;;;;;8.51;100.00;99386.72;5009075;28;20037;-76
2022/10/01 08:46:56;;;;;;;9.57;6.07;;;;;;;8.51;100.00;99392.03;5010272;28;20033;-76
2022/10/01 08:49:27;;;;;;;9.35;6.10;;;;;;;8.49;100.00;99395.88;5010912;28;20034;-77
2022/10/01 08:52:28;;;;;;;7.82;5.90;;;;;;;8.59;100.00;99407.06;5024934;28;20044;-76
2022/10/01 08:55:02;;;;;;;7.80;5.80;;;;;;;8.61;100.00;99392.56;4962563;28;20128;-76
2022/10/01 08:57:40;;;;;;;9.82;7.45;;;;;;;8.63;100.00;99390.56;5010915;28;20037;-75
2022/10/01 09:00:13;;;;;;;9.65;6.03;;;;;;;8.59;100.00;99386.63;5025169;28;20037;-77
2022/10/01 09:02:41;;;;;;;9.07;5.65;;;;;;;8.61;100.00;99383.78;5020442;28;20406;-75
2022/10/01 09:05:25;;;;;;;6.65;5.45;;;;;;;8.61;100.00;99386.44;5010495;28;20052;-76
2022/10/01 09:08:19;;;;;;;7.80;5.95;;;;;;;8.68;100.00;99389.19;5020972;28;20053;-77
2022/10/01 09:10:55;;;;;;;8.68;5.68;;;;;;;8.71;100.00;99383.50;5022043;28;20186;-78
2022/10/01 09:13:20;;;;;;;;;;;;;;;8.72;100.00;99375.34;4994719;28;20433;-76
2022/10/01 09:15:57;;;;;;;15.57;8.95;;;;;;;8.76;100.00;99357.19;5027093;28;19940;-76
2022/10/01 09:18:44;;;;;;;6.40;5.40;;;;;;;8.81;100.00;99381.41;5027561;28;20479;-76
2022/10/01 09:21:19;;;;;;;5.28;4.28;;;;;;;8.83;100.00;99374.06;5029013;28;20036;-77
2022/10/01 09:24:15;;;;;;;5.80;4.95;;;;;;;8.98;100.00;99374.03;5028724;28;20056;-78
2022/10/01 09:26:47;;;;;;;7.18;4.93;;;;;;;8.95;100.00;99372.56;5027460;28;20087;-75
2022/10/01 09:29:22;;;;;;;9.88;4.50;;;;;;;9.04;100.00;99375.97;5009862;28;20617;-77
2022/10/01 09:31:50;;;;;;;9.70;6.13;;;;;;;9.09;100.00;99368.25;5026993;28;20029;-79
2022/10/01 09:34:33;;;;;;;7.57;6.00;;;;;;;9.04;100.00;99370.66;5026770;28;20767;-77
2022/10/01 09:37:31;;;;;;;7.78;4.50;;;;;;;9.06;100.00;99371.25;5042937;28;20037;-78
2022/10/01 09:40:16;;;;;;;7.20;4.35;;;;;;;9.02;100.00;99370.81;5027614;28;20137;-74
2022/10/01 09:42:42;;;;;;;6.55;5.00;;;;;;;9.14;100.00;99365.84;5012368;28;20037;-76
2022/10/01 09:45:13;;;;;;;5.97;4.60;;;;;;;9.04;100.00;99360.81;4995361;28;20025;-77
2022/10/01 09:47:42;;;;;;;5.10;4.05;;;;;;;9.08;100.00;99362.09;5011277;28;20138;-78
2022/10/01 09:50:14;;;;;;;6.07;4.72;;;;;;;9.17;100.00;99370.78;4995532;28;20029;-79
2022/10/01 09:52:40;;;;;;;5.40;4.18;;;;;;;9.13;100.00;99358.88;5026845;28;20033;-78
2022/10/01 09:55:21;;;;;;;6.07;4.45;;;;;;;9.12;100.00;99375.84;5006182;28;20017;-76
2022/10/01 09:57:52;;;;;;;6.30;4.20;;;;;;;9.14;100.00;99376.50;5023498;28;20099;-77
2022/10/01 10:00:20;;;;;;;5.88;4.65;;;;;;;9.16;100.00;99379.81;5027391;28;20030;-77
2022/10/01 10:02:48;;;;;;;6.45;4.20;;;;;;;9.13;100.00;99369.53;5011440;28;20120;-76
2022/10/01 10:05:18;;;;;;;5.82;3.90;;;;;;;9.14;100.00;99355.19;5026959;28;20014;-78
2022/10/01 10:08:14;;;;;;;5.20;3.58;;;;;;;9.10;100.00;99359.22;5028072;28;20029;-78
2022/10/01 10:10:49;;;;;;;6.13;3.83;;;;;;;9.07;100.00;99363.09;4986198;28;20050;-78
2022/10/01 10:13:38;;;;;;;4.53;3.90;;;;;;;9.18;100.00;99371.63;5008921;28;20056;-75
2022/10/01 10:16:25;;;;;;;4.05;3.63;;;;;;;9.29;100.00;99369.31;4992530;28;20083;-76
2022/10/01 10:18:55;;;;;;;4.22;3.45;;;;;;;9.28;100.00;99362.31;5008300;28;20864;-76
2022/10/01 10:21:24;;;;;;;4.30;3.10;;;;;;;9.33;100.00;99375.06;5025056;28;20248;-76
2022/10/01 10:24:29;;;;;;;4.28;2.80;;;;;;;9.29;100.00;99374.63;5000059;28;20034;-75
2022/10/01 10:26:57;;;;;;;3.45;2.78;;;;;;;9.30;100.00;99360.28;5017729;28;20056;-76
2022/10/01 10:29:31;;;;;;;4.70;3.03;;;;;;;9.28;100.00;99367.66;5026391;28;20584;-75
2022/10/01 10:32:01;;;;;;;6.00;3.25;;;;;;;9.39;100.00;99368.16;5008954;28;20037;-76
2022/10/01 10:34:32;;;;;;;4.30;3.10;;;;;;;9.36;100.00;99368.53;5008435;28;20037;-76
2022/10/01 10:37:04;;;;;;;5.28;2.90;;;;;;;9.43;100.00;99361.44;5008526;28;20124;-76
2022/10/01 10:39:37;;;;;;;3.78;3.22;;;;;;;9.43;100.00;99374.75;5008940;28;20037;-75
2022/10/01 10:42:05;;;;;;;3.42;2.97;;;;;;;9.52;100.00;99363.78;5023096;28;20047;-76
2022/10/01 10:44:35;;;;;;;5.18;4.10;;;;;;;9.56;100.00;99366.09;4994643;28;20974;-75
2022/10/01 10:47:04;;;;;;;5.60;4.43;;;;;;;9.61;100.00;99379.69;5008283;28;20025;-75
2022/10/01 10:49:32;;;;;;;5.03;4.47;;;;;;;9.61;100.00;99361.03;5000836;28;20077;-75
2022/10/01 10:52:00;;;;;;;10.07;5.90;;;;;;;9.73;100.00;99378.16;5004207;28;20052;-75
2022/10/01 10:54:37;;;;;;;6.57;5.82;;;;;;;9.77;100.00;99371.44;4991907;28;20064;-76
2022/10/01 10:57:26;;;;;;;8.35;5.80;;;;;;;9.80;100.00;99381.69;5004413;28;20029;-76
2022/10/01 11:00:14;;;;;;;9.90;6.38;;;;;;;9.83;100.00;99377.81;5019984;28;20040;-76
2022/10/01 11:02:50;;;;;;;8.45;7.55;;;;;;;9.94;100.00;99377.31;5023074;28;20032;-76
2022/10/01 11:05:18;;;;;;;13.30;7.40;;;;;;;10.06;100.00;99375.78;5008268;28;20522;-76
2022/10/01 11:07:45;;;;;;;11.50;8.25;;;;;;;10.02;100.00;99357.69;5008052;28;20395;-76
2022/10/01 11:10:33;;;;;;;10.57;8.23;;;;;;;10.20;100.00;99379.38;5021836;28;20064;-74
2022/10/01 11:13:19;;;;;;;13.48;9.20;;;;;;;10.42;100.00;99368.69;5008148;28;20071;-77
2022/10/01 11:15:56;;;;;;;10.85;8.65;;;;;;;10.54;100.00;99367.97;5006952;28;20080;-76
2022/10/01 11:18:32;;;;;;;15.75;8.95;;;;;;;10.69;100.00;99369.69;5006907;28;20052;-74
2022/10/01 11:21:41;;;;;;;9.70;7.80;;;;;;;10.88;100.00;99368.94;5007913;28;20491;-77
2022/10/01 11:24:09;;;;;;;10.63;8.32;;;;;;;11.13;100.00;99366.59;5008049;28;20021;-77
2022/10/01 11:27:06;;;;;;;12.10;8.13;;;;;;;11.25;100.00;99358.84;5024109;28;20037;-77
2022/10/01 11:30:00;;;;;;;13.88;7.32;;;;;;;11.19;100.00;99355.13;5007607;28;20034;-77
2022/10/01 11:32:50;;;;;;;18.40;8.00;;;;;;;11.50;100.00;99351.09;5023997;28;20048;-77
2022/10/01 11:35:41;;;;;;;13.52;7.30;;;;;;;12.24;100.00;99360.88;5022422;28;20904;-77
2022/10/01 11:38:27;;;;;;;11.45;6.13;;;;;;;12.19;100.00;99347.25;5004778;28;20044;-77
2022/10/01 11:41:03;;;;;;;9.63;5.35;;;;;;;12.31;100.00;99341.28;5008510;28;20037;-77
2022/10/01 11:43:41;;;;;;;9.30;5.20;;;;;;;12.59;100.00;99333.81;5008346;28;20426;-76
2022/10/01 11:46:39;;;;;;;10.43;5.20;;;;;;;12.42;100.00;99327.28;5025719;28;20493;-77
2022/10/01 11:49:17;;;;;;;11.40;5.60;;;;;;;12.95;100.00;99337.00;5021522;28;20051;-77
2022/10/01 11:51:50;;;;;;;6.78;4.30;;;;;;;12.95;100.00;99332.47;5025254;28;20049;-76
2022/10/01 11:54:21;;;;;;;10.35;4.55;;;;;;;13.05;100.00;99326.66;5025240;28;20080;-75